首页
METAR-TAF:

METAR-TAF

机场 :

巴黎戴高乐, 法国

巴黎夏尔·戴高乐机场

纬度: 49-01N, 经度: 002-32E, 海拔: 118米

当前天气观测

该预报发布于21分钟前的22:00 UTC
风速9节,风向西
温度 11°C
湿度 54%
气压 1018 hPa
能见度10公里或以上
1500米以下无云,无积雨云

METAR: LFPG 252200Z 27009KT CAVOK 11/02 Q1018 NOSIG

时间: 00:21 (22:21 UTC)

预报

该预报发布于5小时和21分钟前的17:00 UTC
预报有效从25日的 18点(UTC)到 26日的 24点(UTC)
风速15节,风向西转西北
能见度10公里或以上
1500米以下无云,无积雨云
成为
从 26日的 20点(UTC)到 26日的 22点(UTC)
风速4节,风向

TAF: LFPG 251700Z 2518/2624 30015KT CAVOK BECMG 2620/2622 01004KT TX15/2615Z TN08/2605Z

超过4000个机场的气象观测和天气预报(METAR&TAF报告)。

可查询的气象台以黄色和红色小点在地图上表示。

将鼠标移到小点上方,可查看气象台名称。

然后点击查看天气观测和预报。

如需切换地图:点击带黑十字的绿色按钮放大地图;点击带横线的绿色按钮缩小地图;或者点击绿色箭头查看邻近地区的地图。


METAR-TAF: